createdAt,value
2018-09-26T00:00:41.808Z,9.56
2018-09-26T00:01:41.783Z,9.53
2018-09-26T00:02:41.780Z,9.54
2018-09-26T00:03:41.769Z,9.50
2018-09-26T00:04:41.784Z,9.54
2018-09-26T00:05:41.726Z,9.53
2018-09-26T00:06:41.715Z,9.48
2018-09-26T00:07:41.691Z,9.38
2018-09-26T00:08:41.679Z,9.46
2018-09-26T00:09:41.723Z,9.43
2018-09-26T00:10:41.644Z,9.53
2018-09-26T00:11:41.640Z,9.40
2018-09-26T00:12:41.618Z,9.40
2018-09-26T00:13:41.609Z,9.51
2018-09-26T00:14:41.594Z,9.50
2018-09-26T00:15:41.568Z,9.53
2018-09-26T00:16:41.550Z,9.51
2018-09-26T00:17:41.569Z,9.42
2018-09-26T00:18:41.521Z,9.51
2018-09-26T00:19:41.505Z,9.38
2018-09-26T00:20:41.532Z,9.50
2018-09-26T00:21:41.466Z,9.40
2018-09-26T00:22:41.457Z,9.47
2018-09-26T00:23:41.436Z,9.36
2018-09-26T00:24:41.416Z,9.39
2018-09-26T00:25:41.441Z,9.29
2018-09-26T00:26:41.426Z,9.35
2018-09-26T00:27:41.378Z,9.31
2018-09-26T00:28:41.360Z,9.38
2018-09-26T00:29:41.347Z,9.38
2018-09-26T00:30:41.324Z,9.31
2018-09-26T00:31:41.366Z,9.35
2018-09-26T00:32:41.300Z,9.39
2018-09-26T00:33:41.285Z,9.46
2018-09-26T00:34:41.265Z,9.43
2018-09-26T00:35:41.266Z,9.47
2018-09-26T00:36:41.238Z,9.46
2018-09-26T00:37:41.251Z,9.40
2018-09-26T00:38:41.197Z,9.40
2018-09-26T00:39:41.211Z,9.35
2018-09-26T00:40:41.170Z,9.36
2018-09-26T00:41:41.184Z,9.36
2018-09-26T00:42:41.146Z,9.33
2018-09-26T00:43:41.116Z,9.36
2018-09-26T00:44:41.109Z,9.35
2018-09-26T00:45:41.088Z,9.42
2018-09-26T00:46:41.064Z,9.39
2018-09-26T00:47:41.057Z,9.26
2018-09-26T00:48:41.071Z,9.31
2018-09-26T00:49:41.032Z,9.31
2018-09-26T00:50:41.004Z,9.39
2018-09-26T00:51:40.989Z,9.39
2018-09-26T00:52:40.969Z,9.43
2018-09-26T00:53:40.985Z,9.43
2018-09-26T00:54:40.928Z,9.46
2018-09-26T00:55:40.918Z,9.42
2018-09-26T00:56:40.911Z,9.33
2018-09-26T00:57:40.887Z,9.42
2018-09-26T00:58:41.127Z,9.47
2018-09-26T00:59:40.909Z,9.50
2018-09-26T01:00:40.833Z,9.38
2018-09-26T01:01:40.828Z,9.50
2018-09-26T01:02:40.813Z,9.39
2018-09-26T01:03:40.789Z,9.40
2018-09-26T01:04:40.777Z,9.35
2018-09-26T01:05:40.760Z,9.36
2018-09-26T01:06:40.737Z,9.39
2018-09-26T01:07:40.723Z,9.40
2018-09-26T01:08:40.707Z,9.36
2018-09-26T01:09:40.731Z,9.38
2018-09-26T01:10:40.676Z,9.32
2018-09-26T01:11:40.731Z,9.35
2018-09-26T01:12:40.648Z,9.29
2018-09-26T01:13:40.628Z,9.35
2018-09-26T01:14:40.614Z,9.31
2018-09-26T01:15:40.595Z,9.23
2018-09-26T01:16:40.581Z,9.38
2018-09-26T01:17:40.563Z,9.26
2018-09-26T01:18:40.549Z,9.18
2018-09-26T01:19:40.532Z,9.24
2018-09-26T01:20:40.514Z,9.24
2018-09-26T01:21:40.504Z,9.26
2018-09-26T01:22:40.506Z,9.28
2018-09-26T01:23:40.478Z,9.26
2018-09-26T01:24:40.441Z,9.26
2018-09-26T01:25:40.479Z,9.36
2018-09-26T01:26:40.414Z,9.36
2018-09-26T01:27:40.401Z,9.32
2018-09-26T01:28:40.385Z,9.32
2018-09-26T01:29:40.371Z,9.24
2018-09-26T01:30:40.358Z,9.24
2018-09-26T01:31:40.585Z,9.23
2018-09-26T01:32:40.324Z,9.33
2018-09-26T01:33:40.312Z,9.29
2018-09-26T01:34:40.282Z,9.35
2018-09-26T01:35:40.271Z,9.38
2018-09-26T01:36:40.261Z,9.38
2018-09-26T01:37:40.241Z,9.36
2018-09-26T01:38:40.212Z,9.33
2018-09-26T01:39:40.205Z,9.38
2018-09-26T01:40:40.190Z,9.38
2018-09-26T01:41:40.168Z,9.33
2018-09-26T01:42:40.183Z,9.36
2018-09-26T01:43:40.145Z,9.36
2018-09-26T01:44:40.123Z,9.36
2018-09-26T01:45:40.111Z,9.40
2018-09-26T01:46:40.102Z,9.36
2018-09-26T01:47:40.149Z,9.32
2018-09-26T01:48:40.060Z,9.38
2018-09-26T01:49:40.046Z,9.36
2018-09-26T01:50:40.176Z,9.39
2018-09-26T01:51:40.010Z,9.32
2018-09-26T01:52:39.986Z,9.40
2018-09-26T01:53:40.007Z,9.29
2018-09-26T01:54:39.985Z,9.24
2018-09-26T01:55:39.943Z,9.21
2018-09-26T01:56:39.934Z,9.31
2018-09-26T01:57:39.943Z,9.23
2018-09-26T01:58:39.933Z,9.32
2018-09-26T01:59:39.875Z,9.31
2018-09-26T02:00:39.866Z,9.32
2018-09-26T02:01:39.850Z,9.31
2018-09-26T02:02:39.834Z,9.29
2018-09-26T02:03:39.874Z,9.32
2018-09-26T02:04:39.810Z,9.28
2018-09-26T02:05:39.787Z,9.21
2018-09-26T02:06:39.760Z,9.21
2018-09-26T02:07:39.754Z,9.29
2018-09-26T02:08:39.735Z,9.18
2018-09-26T02:09:39.722Z,9.15
2018-09-26T02:10:39.702Z,9.13
2018-09-26T02:11:39.679Z,9.10
2018-09-26T02:12:39.673Z,9.14
2018-09-26T02:13:39.655Z,9.02
2018-09-26T02:14:39.638Z,9.05
2018-09-26T02:15:39.621Z,9.04
2018-09-26T02:16:39.594Z,9.05
2018-09-26T02:17:39.587Z,8.98
2018-09-26T02:18:39.582Z,9.08
2018-09-26T02:19:39.589Z,9.04
2018-09-26T02:20:39.549Z,9.02
2018-09-26T02:21:39.528Z,9.10
2018-09-26T02:22:39.506Z,9.10
2018-09-26T02:23:39.528Z,9.02
2018-09-26T02:24:39.536Z,9.10
2018-09-26T02:25:39.469Z,9.05
2018-09-26T02:26:39.443Z,9.08
2018-09-26T02:27:39.425Z,8.99
2018-09-26T02:28:39.408Z,8.95
2018-09-26T02:29:39.390Z,8.95
2018-09-26T02:30:39.402Z,8.92
2018-09-26T02:31:39.380Z,9.01
2018-09-26T02:32:39.347Z,8.95
2018-09-26T02:33:39.331Z,8.96
2018-09-26T02:34:39.340Z,8.96
2018-09-26T02:35:39.325Z,8.94
2018-09-26T02:36:39.277Z,8.92
2018-09-26T02:37:39.261Z,8.87
2018-09-26T02:38:39.247Z,8.92
2018-09-26T02:39:39.222Z,8.87
2018-09-26T02:40:39.247Z,8.77
2018-09-26T02:41:39.224Z,8.83
2018-09-26T02:42:39.174Z,8.73
2018-09-26T02:43:39.157Z,8.66
2018-09-26T02:44:39.144Z,8.61
2018-09-26T02:45:39.155Z,8.55
2018-09-26T02:46:39.110Z,8.53
2018-09-26T02:47:39.099Z,8.52
2018-09-26T02:48:39.082Z,8.63
2018-09-26T02:49:39.063Z,8.56
2018-09-26T02:50:39.070Z,8.68
2018-09-26T02:51:39.051Z,8.65
2018-09-26T02:52:39.017Z,8.63
2018-09-26T02:53:38.995Z,8.62
2018-09-26T02:54:38.984Z,8.59
2018-09-26T02:55:39.030Z,8.65
2018-09-26T02:56:38.950Z,8.74
2018-09-26T02:57:38.926Z,8.79
2018-09-26T02:58:38.908Z,8.74
2018-09-26T02:59:38.933Z,8.79
2018-09-26T03:00:38.884Z,8.76
2018-09-26T03:01:38.860Z,8.73
2018-09-26T03:02:38.853Z,8.68
2018-09-26T03:03:38.826Z,8.58
2018-09-26T03:04:38.819Z,8.47
2018-09-26T03:05:38.791Z,8.47
2018-09-26T03:06:38.815Z,8.50
2018-09-26T03:07:38.769Z,8.48
2018-09-26T03:08:38.764Z,8.52
2018-09-26T03:09:38.725Z,8.53
2018-09-26T03:10:38.716Z,8.62
2018-09-26T03:11:38.710Z,8.63
2018-09-26T03:12:38.708Z,8.65
2018-09-26T03:13:38.669Z,8.63
2018-09-26T03:14:38.655Z,8.59
2018-09-26T03:15:38.636Z,8.63
2018-09-26T03:16:38.619Z,8.63
2018-09-26T03:17:38.663Z,8.66
2018-09-26T03:18:38.591Z,8.58
2018-09-26T03:19:38.565Z,8.59
2018-09-26T03:20:38.553Z,8.63
2018-09-26T03:21:38.541Z,8.65
2018-09-26T03:22:38.515Z,8.56
2018-09-26T03:23:38.489Z,8.59
2018-09-26T03:24:38.483Z,8.62
2018-09-26T03:25:38.467Z,8.59
2018-09-26T03:26:38.451Z,8.61
2018-09-26T03:27:38.439Z,8.59
2018-09-26T03:28:38.449Z,8.59
2018-09-26T03:29:38.401Z,8.63
2018-09-26T03:30:38.395Z,8.63
2018-09-26T03:31:38.375Z,8.62
2018-09-26T03:32:38.393Z,8.62
2018-09-26T03:33:38.375Z,8.63
2018-09-26T03:34:38.322Z,8.58
2018-09-26T03:35:38.327Z,8.59
2018-09-26T03:36:38.287Z,8.53
2018-09-26T03:37:38.262Z,8.50
2018-09-26T03:38:38.278Z,8.45
2018-09-26T03:39:38.313Z,8.41
2018-09-26T03:40:38.214Z,8.43
2018-09-26T03:41:38.195Z,8.50
2018-09-26T03:42:38.188Z,8.47
2018-09-26T03:43:38.156Z,8.52
2018-09-26T03:44:38.154Z,8.50
2018-09-26T03:45:38.129Z,8.47
2018-09-26T03:46:38.113Z,8.43
2018-09-26T03:47:38.097Z,8.45
2018-09-26T03:48:38.090Z,8.43
2018-09-26T03:49:38.061Z,8.53
2018-09-26T03:50:38.333Z,8.52
2018-09-26T03:51:38.030Z,8.45
2018-09-26T03:52:38.008Z,8.40
2018-09-26T03:53:37.999Z,8.52
2018-09-26T03:54:37.974Z,8.47
2018-09-26T03:55:38.020Z,8.29
2018-09-26T03:56:37.948Z,8.28
2018-09-26T03:57:37.926Z,8.22
2018-09-26T03:58:37.918Z,8.20
2018-09-26T03:59:37.893Z,8.29
2018-09-26T04:00:37.885Z,8.22
2018-09-26T04:01:37.920Z,8.22
2018-09-26T04:02:37.850Z,8.28
2018-09-26T04:03:37.832Z,8.30
2018-09-26T04:04:37.812Z,8.34
2018-09-26T04:05:37.800Z,8.29
2018-09-26T04:06:37.786Z,8.29
2018-09-26T04:07:37.793Z,8.36
2018-09-26T04:08:37.740Z,8.36
2018-09-26T04:09:37.723Z,8.36
2018-09-26T04:10:37.716Z,8.25
2018-09-26T04:11:37.699Z,8.20
2018-09-26T04:12:37.830Z,8.22
2018-09-26T04:13:37.664Z,8.16
2018-09-26T04:14:37.648Z,8.15
2018-09-26T04:15:37.669Z,8.28
2018-09-26T04:16:37.641Z,8.23
2018-09-26T04:17:37.600Z,8.28
2018-09-26T04:18:37.586Z,8.30
2018-09-26T04:19:37.590Z,8.25
2018-09-26T04:20:37.548Z,8.29
2018-09-26T04:21:37.528Z,8.25
2018-09-26T04:22:37.542Z,8.33
2018-09-26T04:23:37.502Z,8.25
2018-09-26T04:24:37.469Z,8.34
2018-09-26T04:25:37.454Z,8.28
2018-09-26T04:26:37.606Z,8.28
2018-09-26T04:27:37.531Z,8.22
2018-09-26T04:28:37.404Z,8.11
2018-09-26T04:29:37.413Z,8.08
2018-09-26T04:30:37.395Z,8.01
2018-09-26T04:31:37.358Z,8.01
2018-09-26T04:32:37.433Z,8.00
2018-09-26T04:33:37.413Z,8.01
2018-09-26T04:34:37.314Z,8.01
2018-09-26T04:35:37.290Z,7.95
2018-09-26T04:36:37.265Z,8.04
2018-09-26T04:37:37.279Z,8.01
2018-09-26T04:38:37.292Z,8.04
2018-09-26T04:39:37.228Z,8.07
2018-09-26T04:40:37.200Z,8.01
2018-09-26T04:41:37.229Z,8.01
2018-09-26T04:42:37.179Z,8.07
2018-09-26T04:43:37.185Z,7.98
2018-09-26T04:44:37.138Z,8.04
2018-09-26T04:45:37.120Z,7.97
2018-09-26T04:46:37.113Z,8.04
2018-09-26T04:47:37.092Z,8.08
2018-09-26T04:48:37.126Z,8.12
2018-09-26T04:49:37.054Z,8.19
2018-09-26T04:50:37.047Z,8.11
2018-09-26T04:51:37.012Z,8.20
2018-09-26T04:52:36.999Z,8.07
2018-09-26T04:53:36.995Z,8.19
2018-09-26T04:54:37.016Z,8.23
2018-09-26T04:55:36.960Z,8.23
2018-09-26T04:56:36.928Z,8.16
2018-09-26T04:57:36.915Z,8.10
2018-09-26T04:58:36.909Z,8.12
2018-09-26T04:59:36.888Z,8.10
2018-09-26T05:00:36.869Z,8.11
2018-09-26T05:01:36.855Z,8.08
2018-09-26T05:02:36.840Z,8.10
2018-09-26T05:03:36.831Z,8.11
2018-09-26T05:04:36.835Z,8.05
2018-09-26T05:05:36.791Z,8.10
2018-09-26T05:06:36.768Z,8.11
2018-09-26T05:07:36.758Z,8.26
2018-09-26T05:08:36.741Z,8.22
2018-09-26T05:09:36.717Z,8.16
2018-09-26T05:10:36.736Z,8.28
2018-09-26T05:11:36.692Z,8.18
2018-09-26T05:12:36.666Z,8.33
2018-09-26T05:13:36.656Z,8.29
2018-09-26T05:14:36.708Z,8.26
2018-09-26T05:15:36.611Z,8.25
2018-09-26T05:16:36.602Z,8.33
2018-09-26T05:17:36.595Z,8.28
2018-09-26T05:18:36.572Z,8.25
2018-09-26T05:19:36.552Z,8.30
2018-09-26T05:20:36.526Z,8.33
2018-09-26T05:21:36.548Z,8.37
2018-09-26T05:22:36.542Z,8.40
2018-09-26T05:23:36.487Z,8.43
2018-09-26T05:24:36.463Z,8.41
2018-09-26T05:25:36.478Z,8.47
2018-09-26T05:26:36.471Z,8.47
2018-09-26T05:27:36.417Z,8.45
2018-09-26T05:28:36.399Z,8.41
2018-09-26T05:29:36.382Z,8.48
2018-09-26T05:30:36.372Z,8.44
2018-09-26T05:31:36.365Z,8.50
2018-09-26T05:32:36.335Z,8.47
2018-09-26T05:33:36.318Z,8.43
2018-09-26T05:34:36.298Z,8.44
2018-09-26T05:35:36.281Z,8.44
2018-09-26T05:36:36.285Z,8.47
2018-09-26T05:37:36.253Z,8.47
2018-09-26T05:38:36.236Z,8.52
2018-09-26T05:39:36.220Z,8.53
2018-09-26T05:40:36.192Z,8.44
2018-09-26T05:41:36.231Z,8.41
2018-09-26T05:42:36.175Z,8.45
2018-09-26T05:43:36.141Z,8.44
2018-09-26T05:44:36.122Z,8.43
2018-09-26T05:45:36.109Z,8.37
2018-09-26T05:46:36.130Z,8.40
2018-09-26T05:47:36.085Z,8.44
2018-09-26T05:48:36.068Z,8.40
2018-09-26T05:49:36.055Z,8.41
2018-09-26T05:50:36.038Z,8.44
2018-09-26T05:51:36.020Z,8.50
2018-09-26T05:52:35.998Z,8.53
2018-09-26T05:53:35.985Z,8.47
2018-09-26T05:54:35.978Z,8.45
2018-09-26T05:55:35.948Z,8.50
2018-09-26T05:56:35.930Z,8.43
2018-09-26T05:57:35.951Z,8.48
2018-09-26T05:58:35.895Z,8.50
2018-09-26T05:59:35.905Z,8.45
2018-09-26T06:00:35.861Z,8.50
2018-09-26T06:01:35.851Z,8.50
2018-09-26T06:02:35.826Z,8.47
2018-09-26T06:03:35.842Z,8.50
2018-09-26T06:04:35.800Z,8.50
2018-09-26T06:05:35.833Z,8.59
2018-09-26T06:06:35.766Z,8.59
2018-09-26T06:07:35.751Z,8.45
2018-09-26T06:08:36.000Z,8.44
2018-09-26T06:09:35.710Z,8.59
2018-09-26T06:10:35.697Z,8.61
2018-09-26T06:11:35.686Z,8.48
2018-09-26T06:12:35.663Z,8.65
2018-09-26T06:13:35.647Z,8.65
2018-09-26T06:14:35.644Z,8.65
2018-09-26T06:15:35.612Z,8.63
2018-09-26T06:16:35.601Z,8.63
2018-09-26T06:17:35.574Z,8.65
2018-09-26T06:18:35.571Z,8.63
2018-09-26T06:19:35.560Z,8.62
2018-09-26T06:20:35.532Z,8.65
2018-09-26T06:21:35.511Z,8.58
2018-09-26T06:22:35.497Z,8.58
2018-09-26T06:23:35.479Z,8.61
2018-09-26T06:24:35.560Z,8.59
2018-09-26T06:25:35.444Z,8.63
2018-09-26T06:26:35.435Z,8.65
2018-09-26T06:27:35.413Z,8.70
2018-09-26T06:28:35.401Z,8.77
2018-09-26T06:29:35.378Z,8.76
2018-09-26T06:30:35.391Z,8.76
2018-09-26T06:31:35.353Z,8.73
2018-09-26T06:32:35.337Z,8.76
2018-09-26T06:33:35.322Z,8.77
2018-09-26T06:34:35.304Z,8.74
2018-09-26T06:35:35.285Z,8.84
2018-09-26T06:36:35.276Z,8.76
2018-09-26T06:37:35.258Z,8.87
2018-09-26T06:38:35.268Z,8.94
2018-09-26T06:39:35.220Z,8.86
2018-09-26T06:40:35.247Z,8.94
2018-09-26T06:41:35.190Z,8.96
2018-09-26T06:42:35.167Z,8.99
2018-09-26T06:43:35.141Z,8.94
2018-09-26T06:44:35.128Z,9.02
2018-09-26T06:45:35.124Z,8.98
2018-09-26T06:46:35.117Z,9.01
2018-09-26T06:47:35.164Z,9.13
2018-09-26T06:48:35.067Z,9.11
2018-09-26T06:49:35.054Z,9.17
2018-09-26T06:50:35.045Z,9.23
2018-09-26T06:51:35.024Z,9.15
2018-09-26T06:52:35.009Z,9.26
2018-09-26T06:53:35.051Z,9.17
2018-09-26T06:54:34.974Z,9.29
2018-09-26T06:55:34.960Z,9.17
2018-09-26T06:56:34.938Z,9.20
2018-09-26T06:57:34.929Z,9.24
2018-09-26T06:58:34.905Z,9.26
2018-09-26T06:59:34.892Z,9.20
2018-09-26T07:00:34.880Z,9.20
2018-09-26T07:01:34.865Z,9.23
2018-09-26T07:02:34.841Z,9.31
2018-09-26T07:03:34.824Z,9.38
2018-09-26T07:04:34.806Z,9.35
2018-09-26T07:05:34.800Z,9.38
2018-09-26T07:06:34.806Z,9.35
2018-09-26T07:07:34.761Z,9.33
2018-09-26T07:08:34.768Z,9.42
2018-09-26T07:09:34.734Z,9.43
2018-09-26T07:10:34.724Z,9.46
2018-09-26T07:11:34.707Z,9.50
2018-09-26T07:12:34.686Z,9.48
2018-09-26T07:13:34.734Z,9.51
2018-09-26T07:14:34.653Z,9.53
2018-09-26T07:15:34.641Z,9.50
2018-09-26T07:16:34.612Z,9.57
2018-09-26T07:17:34.604Z,9.56
2018-09-26T07:18:34.581Z,9.56
2018-09-26T07:19:34.581Z,9.53
2018-09-26T07:20:34.565Z,9.54
2018-09-26T07:21:34.542Z,9.65
2018-09-26T07:22:34.519Z,9.57
2018-09-26T07:23:34.503Z,9.69
2018-09-26T07:24:34.536Z,9.75
2018-09-26T07:25:34.514Z,9.72
2018-09-26T07:26:34.463Z,9.76
2018-09-26T07:27:34.448Z,9.76
2018-09-26T07:28:34.427Z,9.76
2018-09-26T07:29:34.465Z,9.76
2018-09-26T07:30:34.401Z,9.81
2018-09-26T07:31:34.455Z,9.83
2018-09-26T07:32:34.366Z,9.79
2018-09-26T07:33:34.352Z,9.86
2018-09-26T07:34:34.334Z,9.86
2018-09-26T07:35:34.338Z,9.96
2018-09-26T07:36:34.317Z,9.96
2018-09-26T07:37:34.297Z,9.90
2018-09-26T07:38:34.320Z,9.93
2018-09-26T07:39:34.249Z,9.87
2018-09-26T07:40:34.265Z,9.97
2018-09-26T07:41:34.224Z,9.94
2018-09-26T07:42:34.207Z,10.02
2018-09-26T07:43:34.198Z,10.02
2018-09-26T07:44:34.187Z,10.01
2018-09-26T07:45:34.272Z,10.04
2018-09-26T07:46:34.183Z,10.15
2018-09-26T07:47:34.133Z,10.23
2018-09-26T07:48:34.106Z,10.18
2018-09-26T07:49:34.122Z,10.25
2018-09-26T07:50:34.111Z,10.23
2018-09-26T07:51:34.073Z,10.27
2018-09-26T07:52:34.052Z,10.34
2018-09-26T07:53:34.032Z,10.32
2018-09-26T07:54:34.028Z,10.36
2018-09-26T07:55:34.065Z,10.34
2018-09-26T07:56:34.001Z,10.38
2018-09-26T07:57:33.974Z,10.40
2018-09-26T07:58:33.966Z,10.36
2018-09-26T07:59:33.953Z,10.45
2018-09-26T08:00:33.949Z,10.44
2018-09-26T08:01:33.925Z,10.51
2018-09-26T08:02:33.899Z,10.47
2018-09-26T08:03:33.896Z,10.51
2018-09-26T08:04:33.901Z,10.51
2018-09-26T08:05:33.852Z,10.60
2018-09-26T08:06:33.836Z,10.56
2018-09-26T08:07:33.815Z,10.56
2018-09-26T08:08:33.804Z,10.56
2018-09-26T08:09:33.817Z,10.56
2018-09-26T08:10:33.776Z,10.61
2018-09-26T08:11:33.822Z,10.59
2018-09-26T08:12:33.752Z,10.66
2018-09-26T08:13:33.740Z,10.63
2018-09-26T08:14:33.736Z,10.59
2018-09-26T08:15:33.705Z,10.64
2018-09-26T08:16:33.692Z,10.66
2018-09-26T08:17:33.701Z,10.53
2018-09-26T08:18:33.724Z,10.60
2018-09-26T08:19:33.742Z,10.60
2018-09-26T08:20:33.641Z,10.70
2018-09-26T08:21:33.619Z,10.66
2018-09-26T08:22:33.618Z,10.74
2018-09-26T08:23:33.582Z,10.68
2018-09-26T08:24:33.597Z,10.71
2018-09-26T08:25:33.549Z,10.82
2018-09-26T08:26:33.537Z,10.85
2018-09-26T08:27:33.524Z,10.92
2018-09-26T08:28:33.538Z,10.99
2018-09-26T08:29:33.500Z,10.92
2018-09-26T08:30:33.476Z,10.99
2018-09-26T08:31:33.486Z,11.09
2018-09-26T08:32:33.448Z,11.17
2018-09-26T08:33:33.441Z,11.07
2018-09-26T08:34:33.423Z,11.10
2018-09-26T08:35:33.403Z,11.14
2018-09-26T08:36:33.398Z,11.22
2018-09-26T08:37:33.372Z,11.27
2018-09-26T08:38:33.380Z,11.36
2018-09-26T08:39:33.369Z,11.33
2018-09-26T08:40:33.335Z,11.32
2018-09-26T08:41:33.312Z,11.42
2018-09-26T08:42:33.300Z,11.42
2018-09-26T08:43:33.321Z,11.42
2018-09-26T08:44:33.307Z,11.42
2018-09-26T08:45:33.256Z,11.39
2018-09-26T08:46:33.243Z,11.47
2018-09-26T08:47:33.225Z,11.52
2018-09-26T08:48:33.206Z,11.57
2018-09-26T08:49:33.221Z,11.64
2018-09-26T08:50:33.179Z,11.57
2018-09-26T08:51:33.178Z,11.64
2018-09-26T08:52:33.152Z,11.64
2018-09-26T08:53:33.164Z,11.64
2018-09-26T08:54:33.126Z,11.61
2018-09-26T08:55:33.173Z,11.67
2018-09-26T08:56:33.101Z,11.67
2018-09-26T08:57:33.082Z,11.76
2018-09-26T08:58:33.072Z,11.73
2018-09-26T08:59:33.106Z,11.70
2018-09-26T09:00:33.056Z,11.78
2018-09-26T09:01:33.054Z,11.82
2018-09-26T09:02:33.015Z,11.78
2018-09-26T09:03:32.989Z,11.69
2018-09-26T09:04:32.981Z,11.80
2018-09-26T09:05:32.969Z,11.82
2018-09-26T09:06:32.947Z,11.82
2018-09-26T09:07:32.940Z,11.82
2018-09-26T09:08:32.925Z,11.90
2018-09-26T09:09:32.904Z,11.95
2018-09-26T09:10:32.977Z,11.82
2018-09-26T09:11:32.880Z,11.88
2018-09-26T09:12:32.866Z,11.79
2018-09-26T09:13:32.859Z,11.86
2018-09-26T09:14:32.956Z,11.86
2018-09-26T09:15:32.829Z,11.86
2018-09-26T09:16:32.883Z,11.88
2018-09-26T09:17:32.785Z,11.98
2018-09-26T09:18:32.784Z,11.91
2018-09-26T09:19:32.760Z,11.88
2018-09-26T09:20:32.762Z,11.85
2018-09-26T09:21:32.745Z,11.88
2018-09-26T09:22:32.732Z,11.80
2018-09-26T09:23:32.708Z,11.85
2018-09-26T09:24:32.701Z,11.83
2018-09-26T09:25:32.681Z,11.94
2018-09-26T09:26:32.703Z,11.96
2018-09-26T09:27:32.726Z,11.95
2018-09-26T09:28:32.636Z,12.04
2018-09-26T09:29:32.621Z,12.05
2018-09-26T09:30:32.627Z,12.12
2018-09-26T09:31:32.639Z,12.05
2018-09-26T09:32:32.582Z,12.05
2018-09-26T09:33:32.569Z,12.09
2018-09-26T09:34:32.564Z,12.12
2018-09-26T09:35:32.543Z,12.12
2018-09-26T09:36:32.632Z,12.16
2018-09-26T09:37:32.504Z,12.20
2018-09-26T09:38:32.498Z,12.16
2018-09-26T09:39:32.497Z,12.20
2018-09-26T09:40:32.460Z,12.29
2018-09-26T09:41:32.454Z,12.24
2018-09-26T09:42:32.446Z,12.35
2018-09-26T09:43:32.433Z,12.37
2018-09-26T09:44:32.484Z,12.31
2018-09-26T09:45:32.403Z,12.42
2018-09-26T09:46:32.398Z,12.38
2018-09-26T09:47:32.411Z,12.41
2018-09-26T09:48:32.415Z,12.41
2018-09-26T09:49:32.345Z,12.52
2018-09-26T09:50:32.332Z,12.53
2018-09-26T09:51:32.324Z,12.56
2018-09-26T09:52:32.305Z,12.57
2018-09-26T09:53:32.292Z,12.57
2018-09-26T09:54:32.307Z,12.56
2018-09-26T09:55:32.265Z,12.47
2018-09-26T09:56:32.245Z,12.54
2018-09-26T09:57:32.230Z,12.57
2018-09-26T09:58:32.222Z,12.56
2018-09-26T09:59:32.296Z,12.56
2018-09-26T10:00:32.210Z,12.56
2018-09-26T10:01:32.179Z,12.56
2018-09-26T10:02:32.234Z,12.56
2018-09-26T10:03:32.153Z,12.53
2018-09-26T10:04:32.145Z,12.56
2018-09-26T10:05:32.123Z,12.49
2018-09-26T10:06:32.113Z,12.57
2018-09-26T10:07:32.104Z,12.54
2018-09-26T10:08:32.089Z,12.56
2018-09-26T10:09:32.072Z,12.57
2018-09-26T10:10:32.061Z,12.64
2018-09-26T10:11:32.046Z,12.62
2018-09-26T10:12:32.058Z,12.62
2018-09-26T10:13:32.015Z,12.64
2018-09-26T10:14:32.075Z,12.74
2018-09-26T10:15:31.997Z,12.70
2018-09-26T10:16:32.002Z,12.74
2018-09-26T10:17:32.000Z,12.77
2018-09-26T10:18:32.003Z,12.83
2018-09-26T10:19:31.924Z,12.77
2018-09-26T10:20:31.923Z,12.77
2018-09-26T10:21:31.912Z,12.77
2018-09-26T10:22:31.893Z,12.78
2018-09-26T10:23:31.878Z,12.82
2018-09-26T10:24:31.871Z,12.77
2018-09-26T10:25:31.860Z,12.82
2018-09-26T10:26:31.834Z,12.87
2018-09-26T10:27:31.828Z,12.93
2018-09-26T10:28:31.820Z,12.93
2018-09-26T10:29:31.812Z,12.95
2018-09-26T10:30:31.792Z,13.04
2018-09-26T10:31:31.775Z,13.00
2018-09-26T10:32:31.755Z,13.07
2018-09-26T10:33:31.739Z,13.15
2018-09-26T10:34:31.748Z,13.19
2018-09-26T10:35:31.721Z,13.20
2018-09-26T10:36:31.693Z,13.32
2018-09-26T10:37:31.688Z,13.38
2018-09-26T10:38:31.674Z,13.38
2018-09-26T10:39:31.670Z,13.44
2018-09-26T10:40:31.648Z,13.46
2018-09-26T10:41:31.672Z,13.51
2018-09-26T10:42:31.612Z,13.46
2018-09-26T10:43:31.613Z,13.49
2018-09-26T10:44:31.597Z,13.51
2018-09-26T10:45:31.584Z,13.42
2018-09-26T10:46:31.620Z,13.49
2018-09-26T10:47:31.562Z,13.48
2018-09-26T10:48:31.543Z,13.54
2018-09-26T10:49:31.529Z,13.55
2018-09-26T10:50:31.516Z,13.57
2018-09-26T10:51:31.834Z,13.52
2018-09-26T10:52:31.491Z,13.46
2018-09-26T10:53:31.470Z,13.55
2018-09-26T10:54:31.455Z,13.63
2018-09-26T10:55:31.452Z,13.67
2018-09-26T10:56:31.507Z,13.70
2018-09-26T10:57:31.429Z,13.70
2018-09-26T10:58:31.407Z,13.71
2018-09-26T10:59:31.396Z,13.73
2018-09-26T11:00:31.383Z,13.78
2018-09-26T11:01:31.381Z,13.85
2018-09-26T11:02:31.452Z,13.79
2018-09-26T11:03:31.353Z,13.79
2018-09-26T11:04:31.338Z,13.73
2018-09-26T11:05:31.319Z,13.89
2018-09-26T11:06:31.320Z,13.87
2018-09-26T11:07:31.326Z,13.97
2018-09-26T11:08:31.279Z,13.99
2018-09-26T11:09:31.258Z,14.06
2018-09-26T11:10:31.247Z,14.12
2018-09-26T11:11:31.249Z,14.15
2018-09-26T11:12:31.323Z,14.21
2018-09-26T11:13:31.228Z,14.21
2018-09-26T11:14:31.208Z,14.20
2018-09-26T11:15:31.189Z,14.20
2018-09-26T11:16:31.183Z,14.21
2018-09-26T11:17:31.194Z,14.32
2018-09-26T11:18:31.154Z,14.39
2018-09-26T11:19:31.145Z,14.42
2018-09-26T11:20:31.190Z,14.47
2018-09-26T11:21:31.116Z,14.52
2018-09-26T11:22:31.094Z,14.68
2018-09-26T11:23:31.089Z,14.60
2018-09-26T11:24:31.073Z,14.64
2018-09-26T11:25:31.072Z,14.58
2018-09-26T11:26:31.111Z,14.64
2018-09-26T11:27:31.044Z,14.64
2018-09-26T11:28:31.068Z,14.61
2018-09-26T11:29:31.028Z,14.69
2018-09-26T11:30:30.993Z,14.62
2018-09-26T11:31:30.987Z,14.72
2018-09-26T11:32:31.009Z,14.65
2018-09-26T11:33:31.084Z,14.62
2018-09-26T11:34:30.959Z,14.73
2018-09-26T11:35:30.943Z,14.72
2018-09-26T11:36:30.925Z,14.64
2018-09-26T11:37:30.986Z,14.64
2018-09-26T11:38:30.903Z,14.68
2018-09-26T11:39:30.898Z,14.73
2018-09-26T11:40:30.883Z,14.69
2018-09-26T11:41:30.865Z,14.78
2018-09-26T11:42:30.868Z,14.92
2018-09-26T11:43:30.872Z,14.89
2018-09-26T11:44:30.898Z,14.86
2018-09-26T11:45:30.825Z,14.94
2018-09-26T11:46:30.793Z,14.86
2018-09-26T11:47:30.791Z,14.88
2018-09-26T11:48:30.850Z,14.84
2018-09-26T11:49:30.771Z,14.83
2018-09-26T11:50:30.760Z,14.96
2018-09-26T11:51:30.740Z,14.98
2018-09-26T11:52:30.729Z,14.95
2018-09-26T11:53:30.709Z,15.06
2018-09-26T11:54:30.733Z,15.17
2018-09-26T11:55:30.699Z,15.03
2018-09-26T11:56:30.800Z,15.02
2018-09-26T11:57:30.681Z,15.02
2018-09-26T11:58:30.663Z,15.02
2018-09-26T11:59:30.673Z,15.03
2018-09-26T12:00:30.633Z,15.16
2018-09-26T12:01:30.654Z,15.16
2018-09-26T12:02:30.697Z,15.10
2018-09-26T12:03:30.603Z,15.19
2018-09-26T12:04:30.576Z,15.23
2018-09-26T12:05:30.608Z,15.13
2018-09-26T12:06:30.560Z,15.23
2018-09-26T12:07:30.580Z,15.19
2018-09-26T12:08:30.531Z,15.28
2018-09-26T12:09:30.521Z,15.32
2018-09-26T12:10:30.541Z,15.32
2018-09-26T12:11:30.513Z,15.41
2018-09-26T12:12:30.491Z,15.35
2018-09-26T12:13:30.480Z,15.38
2018-09-26T12:14:30.487Z,15.41
2018-09-26T12:15:30.449Z,15.49
2018-09-26T12:16:30.451Z,15.50
2018-09-26T12:17:30.421Z,15.50
2018-09-26T12:18:30.417Z,15.49
2018-09-26T12:19:30.412Z,15.64
2018-09-26T12:20:30.385Z,15.67
2018-09-26T12:21:30.739Z,15.64
2018-09-26T12:22:30.384Z,15.62
2018-09-26T12:23:30.354Z,15.74
2018-09-26T12:24:30.344Z,15.69
2018-09-26T12:25:30.333Z,15.67
2018-09-26T12:26:30.354Z,15.72
2018-09-26T12:27:30.308Z,15.75
2018-09-26T12:28:30.300Z,15.78
2018-09-26T12:29:30.284Z,15.76
2018-09-26T12:30:30.276Z,15.83
2018-09-26T12:31:30.277Z,15.83
2018-09-26T12:32:30.248Z,15.84
2018-09-26T12:33:30.235Z,15.87
2018-09-26T12:34:30.233Z,15.94
2018-09-26T12:35:30.221Z,15.97
2018-09-26T12:36:30.261Z,15.96
2018-09-26T12:37:30.183Z,15.96
2018-09-26T12:38:30.180Z,16.02
2018-09-26T12:39:30.168Z,16.02
2018-09-26T12:40:30.155Z,16.04
2018-09-26T12:41:30.150Z,16.02
2018-09-26T12:42:30.160Z,16.05
2018-09-26T12:43:30.125Z,16.07
2018-09-26T12:44:30.112Z,16.07
2018-09-26T12:45:30.102Z,16.11
2018-09-26T12:46:30.127Z,16.12
2018-09-26T12:47:30.073Z,16.07
2018-09-26T12:48:30.116Z,16.14
2018-09-26T12:49:30.054Z,16.21
2018-09-26T12:50:30.071Z,16.35
2018-09-26T12:51:30.035Z,16.31
2018-09-26T12:52:30.034Z,16.31
2018-09-26T12:53:30.067Z,16.35
2018-09-26T12:54:30.001Z,16.34
2018-09-26T12:55:30.361Z,16.43
2018-09-26T12:56:29.979Z,16.31
2018-09-26T12:57:29.973Z,16.34
2018-09-26T12:58:29.952Z,16.24
2018-09-26T12:59:29.949Z,16.23
2018-09-26T13:00:30.066Z,16.20
2018-09-26T13:01:29.956Z,16.12
2018-09-26T13:02:29.973Z,16.09
2018-09-26T13:03:29.898Z,16.11
2018-09-26T13:04:29.907Z,16.11
2018-09-26T13:05:29.915Z,16.11
2018-09-26T13:06:29.879Z,16.15
2018-09-26T13:07:29.864Z,16.09